Lares, Puerto Rico
Current Conditions -  °F | °C
As of 11:50 AM on Thursday 29 Jan 2015 (Local Time) from TJBQ Reporting Station
Clear Clear  
Wind Chill: 82°   Ceiling: Unl
Heat Index: 86°   Visibility: 10mi
Dew Point: 70°   Wind: 10mph
Humidity: 66%   Direction: 80°E
Pressure: 30.05"   Gusts: NA
Location:  18.29°N, 66.88°W
Report Text: TJBQ 291550Z 08009KT 10SM SKC 28/21 A3005 RMK RWY 08 ATIS F
Loading
Personal Weather Stations






























Interactive Weather Map New forecast layout! Learn more

10-Day Weather Forecast

Advertisements
Track Severe Weather on mobile